Lowlands Nello — 9V5332 — position and weather

sailwx.info

Track history (hours):
 
Tides and Currents Weather Stations Pressure Air Temp Water Temp Dewpoint Dewpoint Depression Visibility Wind Speed Wind Dir Waves Ship Positions

Lowlands Nello

Last reported at 2018-Jan-12 15:00 UTC. Time now 2018-Jan-20 15:32 UTC.
Position N 34°14' E 135°08'.
Warning: this ship's position is 8 days out of date.

Length 229 m; draft 9.4 m.

Type: Cargo ship. MMSI: 563029700.

Date/timePositionNaut miles runAvg speedWind from/ knotsBaromVisibWave heightAir tempDewpointWater temp
2018-Jan-12 15:00N 34°14' E 135°08'0 0.0
2018-Jan-12 14:30N 34°14' E 135°08'0 0.0
2018-Jan-12 14:00N 34°14' E 135°08'0 0.0
2018-Jan-12 13:30N 34°14' E 135°08'0 0.0
2018-Jan-12 13:00N 34°14' E 135°08'0 0.0
2018-Jan-12 12:30N 34°14' E 135°08'0 0.0
2018-Jan-12 12:00N 34°14' E 135°08'0 0.0
2018-Jan-12 11:30N 34°14' E 135°08'0 0.0
2018-Jan-12 11:00N 34°14' E 135°08'0 0.0
2018-Jan-12 10:30N 34°14' E 135°08'0 0.3
2018-Jan-12 10:00N 34°14' E 135°07'2 4.4
2018-Jan-12 09:30N 34°14' E 135°05'3 6.9
2018-Jan-12 09:00N 34°11' E 135°03'4 7.5
2018-Jan-12 08:30N 34°07' E 135°02'4 8.8
2018-Jan-12 08:00N 34°03' E 135°00'5 9.5
2018-Jan-12 07:30N 33°58' E 134°59'4 7.2
2018-Jan-12 07:00N 33°55' E 134°58'611.2
2018-Jan-12 06:30N 33°49' E 134°59'611.6
2018-Jan-12 06:00N 33°44' E 135°02'611.9
2018-Jan-12 05:30N 33°39' E 135°05'2411.4
2018-Jan-12 03:23N 33°22' E 135°26'15311.8
2018-Jan-11 14:29N 34°14' E 138°18'710.5
2018-Jan-11 13:51N 34°17' E 138°25'410.0
2018-Jan-11 13:30N 34°19' E 138°29'5 9.4
2018-Jan-11 12:59N 34°21' E 138°34'5 8.8
2018-Jan-11 12:27N 34°23' E 138°39'4 8.9
2018-Jan-11 11:59N 34°25' E 138°44'8 8.9
2018-Jan-11 11:03N 34°28' E 138°53'0 8.4
2018-Jan-11 11:00N 34°29' E 138°53'4 8.6
2018-Jan-11 10:30N 34°31' E 138°58'5 8.1
2018-Jan-11 09:51N 34°35' E 139°03'3 9.1
2018-Jan-11 09:29N 34°37' E 139°05'910.1
2018-Jan-11 08:34N 34°45' E 139°11'1 9.6
2018-Jan-11 08:30N 34°45' E 139°12'5 9.5
2018-Jan-11 07:58N 34°49' E 139°16'4 8.8
2018-Jan-11 07:29N 34°52' E 139°20'5 8.8
2018-Jan-11 06:57N 34°55' E 139°24'4 8.9
2018-Jan-11 06:30N 34°57' E 139°29'4 9.0
2018-Jan-11 06:00N 34°59' E 139°33'510.4
2018-Jan-11 05:30N 35°02' E 139°38'611.1
2018-Jan-11 05:01N 35°06' E 139°43'510.9
2018-Jan-11 04:31N 35°11' E 139°46'4 8.7
2018-Jan-11 04:00N 35°15' E 139°46'613.0
2018-Jan-11 03:30N 35°21' E 139°43'510.3
2018-Jan-11 03:00N 35°25' E 139°46'511.0
2018-Jan-11 02:30N 35°22' E 139°52'0 0.7
2018-Jan-11 01:58N 35°22' E 139°52'0 0.0
2018-Jan-11 01:28N 35°22' E 139°52'0 0.0
2018-Jan-11 00:55N 35°22' E 139°52'0 0.0
2018-Jan-11 00:28N 35°22' E 139°52'0 0.0
2018-Jan-10 23:58N 35°22' E 139°52'0 0.0
2018-Jan-10 23:28N 35°22' E 139°52'0 0.0
2018-Jan-10 22:55N 35°22' E 139°52'0 0.0
2018-Jan-10 22:28N 35°22' E 139°52'0 0.0
2018-Jan-10 21:52N 35°22' E 139°52'0 0.0
2018-Jan-10 21:28N 35°22' E 139°52'0 0.0
2018-Jan-10 20:55N 35°22' E 139°52'0 0.0
2018-Jan-10 20:28N 35°22' E 139°52'0 0.0
2018-Jan-10 19:58N 35°22' E 139°52'0 0.0
2018-Jan-10 19:22N 35°22' E 139°52'0 0.0
2018-Jan-10 18:55N 35°22' E 139°52'0 0.0
2018-Jan-10 18:25N 35°22' E 139°52'0 0.0
2018-Jan-10 17:58N 35°22' E 139°52'0 0.0
2018-Jan-10 17:25N 35°22' E 139°52'0 0.0
2018-Jan-10 16:55N 35°22' E 139°52'0 0.0
2018-Jan-10 16:25N 35°22' E 139°52'0 0.0
2018-Jan-10 15:58N 35°22' E 139°52'0 0.0
2018-Jan-10 15:28N 35°22' E 139°52'0 0.0
2018-Jan-10 14:58N 35°22' E 139°52'0 0.0
2018-Jan-10 14:28N 35°22' E 139°52'0 0.0
2018-Jan-10 13:58N 35°22' E 139°52'0 0.0
2018-Jan-10 13:28N 35°22' E 139°52'0 0.0
2018-Jan-10 12:58N 35°22' E 139°52'0 0.0
2018-Jan-10 12:28N 35°22' E 139°52'0 0.0
2018-Jan-10 11:58N 35°22' E 139°52'0 0.0
2018-Jan-10 11:28N 35°22' E 139°52'0 0.0
2018-Jan-10 10:58N 35°22' E 139°52'0 0.0
2018-Jan-10 10:28N 35°22' E 139°52'0 0.0
2018-Jan-10 09:55N 35°22' E 139°52'0 0.0
2018-Jan-10 09:25N 35°22' E 139°52'0 0.0
2018-Jan-10 08:58N 35°22' E 139°52'0 0.0
2018-Jan-10 08:28N 35°22' E 139°52'0 0.0
2018-Jan-10 07:55N 35°22' E 139°52'0 0.0
2018-Jan-10 07:28N 35°22' E 139°52'0 0.0
2018-Jan-10 06:58N 35°22' E 139°52'0 0.0
2018-Jan-10 06:28N 35°22' E 139°52'0 0.0
2018-Jan-10 05:55N 35°22' E 139°52'0 0.0
2018-Jan-10 05:25N 35°22' E 139°52'0 0.0
2018-Jan-10 04:58N 35°22' E 139°52'0 0.0
2018-Jan-10 04:28N 35°22' E 139°52'0 0.0
2018-Jan-10 03:55N 35°22' E 139°52'0 0.0
2018-Jan-10 03:28N 35°22' E 139°52'0 0.0
2018-Jan-10 02:55N 35°22' E 139°52'0 0.0
2018-Jan-10 02:28N 35°22' E 139°52'0 0.0
2018-Jan-10 01:52N 35°22' E 139°52'0 0.0
2018-Jan-10 01:28N 35°22' E 139°52'0 0.0
2018-Jan-10 00:55N 35°22' E 139°52'0 0.0
2018-Jan-10 00:28N 35°22' E 139°52'0 0.0
2018-Jan-09 23:58N 35°22' E 139°52'0 0.0
2018-Jan-09 23:28N 35°22' E 139°52'0 0.0
2018-Jan-09 22:58N 35°22' E 139°52'0 0.0
2018-Jan-09 22:28N 35°22' E 139°52'0 0.0
2018-Jan-09 21:55N 35°22' E 139°52'0 0.0
2018-Jan-09 21:28N 35°22' E 139°52'0 0.0
2018-Jan-09 20:58N 35°22' E 139°52'0 0.0
2018-Jan-09 20:28N 35°22' E 139°52'0 0.0
2018-Jan-09 19:58N 35°22' E 139°52'0 0.0
2018-Jan-09 19:28N 35°22' E 139°52'0 0.0
2018-Jan-09 18:58N 35°22' E 139°52'0 0.0
2018-Jan-09 18:25N 35°22' E 139°52'0 0.0
2018-Jan-09 17:58N 35°22' E 139°52'0 0.0
2018-Jan-09 17:28N 35°22' E 139°52'0 0.0
2018-Jan-09 16:58N 35°22' E 139°52'0 0.0
2018-Jan-09 16:25N 35°22' E 139°52'0 0.0
2018-Jan-09 15:58N 35°22' E 139°52'0 0.0
2018-Jan-09 15:25N 35°22' E 139°52'0 0.0
2018-Jan-09 14:58N 35°22' E 139°52'0 0.0
2018-Jan-09 14:28N 35°22' E 139°52'0 0.0
2018-Jan-09 13:58N 35°22' E 139°52'0 0.0
2018-Jan-09 13:25N 35°22' E 139°52'0 0.0
2018-Jan-09 12:58N 35°22' E 139°52'0 0.0
2018-Jan-09 12:28N 35°22' E 139°52'0 0.0
2018-Jan-09 11:58N 35°22' E 139°52'0 0.0
2018-Jan-09 11:25N 35°22' E 139°52'0 0.0
2018-Jan-09 10:58N 35°22' E 139°52'0 0.0
2018-Jan-09 10:25N 35°22' E 139°52'0 0.0
2018-Jan-09 09:58N 35°22' E 139°52'0 0.0
2018-Jan-09 09:28N 35°22' E 139°52'0 0.0
2018-Jan-09 08:55N 35°22' E 139°52'0 0.0
2018-Jan-09 08:28N 35°22' E 139°52'0 0.0
2018-Jan-09 07:52N 35°22' E 139°52'0 0.0
2018-Jan-09 07:28N 35°22' E 139°52'0 0.0
2018-Jan-09 06:58N 35°22' E 139°52'0 0.0
2018-Jan-09 06:25N 35°22' E 139°52'0 0.0
2018-Jan-09 05:58N 35°22' E 139°52'0 0.0
2018-Jan-09 05:25N 35°22' E 139°52'0 0.0
2018-Jan-09 04:58N 35°22' E 139°52'0 0.0
2018-Jan-09 04:25N 35°22' E 139°52'0 0.0
2018-Jan-09 03:58N 35°22' E 139°52'0 0.0
2018-Jan-09 03:28N 35°22' E 139°52'0 0.0
2018-Jan-09 02:55N 35°22' E 139°52'0 0.0
2018-Jan-09 02:28N 35°22' E 139°52'0 0.0
2018-Jan-09 01:58N 35°22' E 139°52'0 0.0
2018-Jan-09 01:28N 35°22' E 139°52'0 0.0
2018-Jan-09 00:58N 35°22' E 139°52'0 0.0
2018-Jan-09 00:25N 35°22' E 139°52'0 0.0
2018-Jan-08 23:58N 35°22' E 139°52'0 0.0
2018-Jan-08 23:25N 35°22' E 139°52'0 0.0
2018-Jan-08 22:58N 35°22' E 139°52'0 0.0
2018-Jan-08 22:28N 35°22' E 139°52'0 0.0
2018-Jan-08 21:58N 35°22' E 139°52'0 0.0
2018-Jan-08 21:28N 35°22' E 139°52'0 0.0
2018-Jan-08 20:58N 35°22' E 139°52'0 0.0
2018-Jan-08 20:28N 35°22' E 139°52'0 0.0
2018-Jan-08 19:58N 35°22' E 139°52'0 0.0
2018-Jan-08 19:25N 35°22' E 139°52'0 0.0
2018-Jan-08 18:58N 35°22' E 139°52'0 0.0
2018-Jan-08 18:28N 35°22' E 139°52'0 0.0
2018-Jan-08 17:58N 35°22' E 139°52'0 0.0
2018-Jan-08 17:28N 35°22' E 139°52'0 0.0
2018-Jan-08 16:58N 35°22' E 139°52'0 0.0
2018-Jan-08 16:25N 35°22' E 139°52'0 0.0
2018-Jan-08 15:58N 35°22' E 139°52'0 0.0
2018-Jan-08 15:28N 35°22' E 139°52'0 0.0
2018-Jan-08 14:58N 35°22' E 139°52'0 0.0
2018-Jan-08 14:28N 35°22' E 139°52'0 0.0
2018-Jan-08 13:58N 35°22' E 139°52'0 0.0
2018-Jan-08 13:25N 35°22' E 139°52'0 0.0
2018-Jan-08 12:55N 35°22' E 139°52'0 0.0
2018-Jan-08 12:28N 35°22' E 139°52'0 0.0
2018-Jan-08 11:52N 35°22' E 139°52'0 0.0
2018-Jan-08 11:28N 35°22' E 139°52'0 0.0
2018-Jan-08 10:55N 35°22' E 139°52'0 0.0
2018-Jan-08 10:25N 35°22' E 139°52'0 0.0
2018-Jan-08 09:49N 35°22' E 139°52'0 0.0
2018-Jan-08 09:25N 35°22' E 139°52'0 0.0
2018-Jan-08 08:49N 35°22' E 139°52'0 0.0
2018-Jan-08 08:22N 35°22' E 139°52'0 0.0
2018-Jan-08 07:58N 35°22' E 139°52'0 0.0
2018-Jan-08 07:25N 35°22' E 139°52'0 0.0
2018-Jan-08 06:58N 35°22' E 139°52'0 0.0
2018-Jan-08 06:28N 35°22' E 139°52'0 0.0
2018-Jan-08 05:58N 35°22' E 139°52'0 0.0
2018-Jan-08 05:28N 35°22' E 139°52'0 0.0
2018-Jan-08 04:58N 35°22' E 139°52'0 0.0
2018-Jan-08 04:25N 35°22' E 139°52'0 0.0
2018-Jan-08 03:52N 35°22' E 139°52'0 0.0
2018-Jan-08 03:28N 35°22' E 139°52'0 0.0
2018-Jan-08 02:58N 35°22' E 139°52'0 0.0
2018-Jan-08 02:25N 35°22' E 139°52'0 0.0
2018-Jan-08 01:58N 35°22' E 139°52'0 0.0
2018-Jan-08 01:25N 35°22' E 139°52'0 0.0
2018-Jan-08 00:55N 35°22' E 139°52'0 0.0
2018-Jan-08 00:25N 35°22' E 139°52'0 0.0
2018-Jan-07 23:55N 35°22' E 139°52'0 0.0
2018-Jan-07 23:28N 35°22' E 139°52'0 0.0
2018-Jan-07 22:58N 35°22' E 139°52'0 0.0
2018-Jan-07 22:28N 35°22' E 139°52'0 0.0
2018-Jan-07 21:58N 35°22' E 139°52'0 0.0
2018-Jan-07 21:25N 35°22' E 139°52'0 0.0
2018-Jan-07 20:58N 35°22' E 139°52'0 0.0
2018-Jan-07 20:28N 35°22' E 139°52'0 0.0
2018-Jan-07 19:55N 35°22' E 139°52'0 0.0
2018-Jan-07 19:25N 35°22' E 139°52'0 0.0
2018-Jan-07 18:55N 35°22' E 139°52'0 0.0
2018-Jan-07 18:25N 35°22' E 139°52'0 0.0
2018-Jan-07 17:58N 35°22' E 139°52'0 0.0
2018-Jan-07 17:28N 35°22' E 139°52'0 0.0
2018-Jan-07 16:58N 35°22' E 139°52'0 0.0
2018-Jan-07 16:28N 35°22' E 139°52'0 0.0
2018-Jan-07 15:55N 35°22' E 139°52'0 0.0
2018-Jan-07 15:28N 35°22' E 139°52'0 0.0
2018-Jan-07 14:58N 35°22' E 139°52'0 0.0
2018-Jan-07 14:28N 35°22' E 139°52'0 0.0
2018-Jan-07 13:58N 35°22' E 139°52'0 0.0
2018-Jan-07 13:25N 35°22' E 139°52'0 0.0
2018-Jan-07 12:55N 35°22' E 139°52'0 0.0
2018-Jan-07 12:28N 35°22' E 139°52'0 0.0
2018-Jan-07 11:58N 35°22' E 139°52'0 0.0
2018-Jan-07 11:28N 35°22' E 139°52'0 0.0
2018-Jan-07 11:00N 35°22' E 139°52'0 0.0
2018-Jan-07 10:30N 35°22' E 139°52'0 0.0
2018-Jan-07 10:00N 35°22' E 139°52'0 0.0
2018-Jan-07 09:30N 35°22' E 139°52'0 0.3
2018-Jan-07 09:00N 35°22' E 139°52'1 3.0
2018-Jan-07 08:30N 35°23' E 139°51'3 5.7
2018-Jan-07 08:00N 35°25' E 139°48'1 1.3
2018-Jan-07 07:27N 35°26' E 139°49'0 0.1
2018-Jan-07 07:00N 35°26' E 139°49'0 0.1
2018-Jan-07 06:30N 35°26' E 139°49'0 0.1
2018-Jan-07 05:57N 35°25' E 139°49'0 0.1
2018-Jan-07 05:30N 35°25' E 139°49'0 0.1
2018-Jan-07 05:00N 35°25' E 139°49'0 0.1
2018-Jan-07 04:31N 35°25' E 139°49'2 3.6
2018-Jan-07 04:00N 35°25' E 139°47'4 8.9
2018-Jan-07 03:30N 35°21' E 139°45'5 9.9
2018-Jan-07 03:00N 35°16' E 139°46'510.1
2018-Jan-07 02:31N 35°11' E 139°47'4 7.3
2018-Jan-07 02:01N 35°07' E 139°46'4 8.2
2018-Jan-07 01:30N 35°04' E 139°43'9 8.6
2018-Jan-07 00:30N 34°55' E 139°42'5 9.7
2018-Jan-07 00:00N 34°51' E 139°44'5 9.8
2018-Jan-06 23:28N 34°46' E 139°48'8 8.8
2018-Jan-06 22:37N 34°43' E 139°56'7 8.9
2018-Jan-06 21:51N 34°44' E 140°04'4 8.4
2018-Jan-06 21:23N 34°45' E 140°09'2 4.3
2018-Jan-06 20:58N 34°45' E 140°11'21810.9
2018-Jan-06 01:00N 37°06' E 143°36'   300 / 181010.010.8 8.0 1.0 3.0
Track history (hours):
 
Tides and Currents Weather Stations Pressure Air Temp Water Temp Dewpoint Dewpoint Depression Visibility Wind Speed Wind Dir Waves Ship Positions

Lowlands Nello

Last reported at 2018-Jan-12 15:00 UTC. Time now 2018-Jan-20 15:32 UTC.
Position N 34°14' E 135°08'.
Warning: this ship's position is 8 days out of date.

Length 229 m; draft 9.4 m.

Type: Cargo ship. MMSI: 563029700.

Date/timePositionNaut miles runAvg speedWind from/ knotsBaromVisibWave heightAir tempDewpointWater temp
2018-Jan-12 15:00N 34°14' E 135°08'0 0.0
2018-Jan-12 14:30N 34°14' E 135°08'0 0.0
2018-Jan-12 14:00N 34°14' E 135°08'0 0.0
2018-Jan-12 13:30N 34°14' E 135°08'0 0.0
2018-Jan-12 13:00N 34°14' E 135°08'0 0.0
2018-Jan-12 12:30N 34°14' E 135°08'0 0.0
2018-Jan-12 12:00N 34°14' E 135°08'0 0.0
2018-Jan-12 11:30N 34°14' E 135°08'0 0.0
2018-Jan-12 11:00N 34°14' E 135°08'0 0.0
2018-Jan-12 10:30N 34°14' E 135°08'0 0.3
2018-Jan-12 10:00N 34°14' E 135°07'2 4.4
2018-Jan-12 09:30N 34°14' E 135°05'3 6.9
2018-Jan-12 09:00N 34°11' E 135°03'4 7.5
2018-Jan-12 08:30N 34°07' E 135°02'4 8.8
2018-Jan-12 08:00N 34°03' E 135°00'5 9.5
2018-Jan-12 07:30N 33°58' E 134°59'4 7.2
2018-Jan-12 07:00N 33°55' E 134°58'611.2
2018-Jan-12 06:30N 33°49' E 134°59'611.6
2018-Jan-12 06:00N 33°44' E 135°02'611.9
2018-Jan-12 05:30N 33°39' E 135°05'2411.4
2018-Jan-12 03:23N 33°22' E 135°26'15311.8
2018-Jan-11 14:29N 34°14' E 138°18'710.5
2018-Jan-11 13:51N 34°17' E 138°25'410.0
2018-Jan-11 13:30N 34°19' E 138°29'5 9.4
2018-Jan-11 12:59N 34°21' E 138°34'5 8.8
2018-Jan-11 12:27N 34°23' E 138°39'4 8.9
2018-Jan-11 11:59N 34°25' E 138°44'8 8.9
2018-Jan-11 11:03N 34°28' E 138°53'0 8.4
2018-Jan-11 11:00N 34°29' E 138°53'4 8.6
2018-Jan-11 10:30N 34°31' E 138°58'5 8.1
2018-Jan-11 09:51N 34°35' E 139°03'3 9.1
2018-Jan-11 09:29N 34°37' E 139°05'910.1
2018-Jan-11 08:34N 34°45' E 139°11'1 9.6
2018-Jan-11 08:30N 34°45' E 139°12'5 9.5
2018-Jan-11 07:58N 34°49' E 139°16'4 8.8
2018-Jan-11 07:29N 34°52' E 139°20'5 8.8
2018-Jan-11 06:57N 34°55' E 139°24'4 8.9
2018-Jan-11 06:30N 34°57' E 139°29'4 9.0
2018-Jan-11 06:00N 34°59' E 139°33'510.4
2018-Jan-11 05:30N 35°02' E 139°38'611.1
2018-Jan-11 05:01N 35°06' E 139°43'510.9
2018-Jan-11 04:31N 35°11' E 139°46'4 8.7
2018-Jan-11 04:00N 35°15' E 139°46'613.0
2018-Jan-11 03:30N 35°21' E 139°43'510.3
2018-Jan-11 03:00N 35°25' E 139°46'511.0
2018-Jan-11 02:30N 35°22' E 139°52'0 0.7
2018-Jan-11 01:58N 35°22' E 139°52'0 0.0
2018-Jan-11 01:28N 35°22' E 139°52'0 0.0
2018-Jan-11 00:55N 35°22' E 139°52'0 0.0
2018-Jan-11 00:28N 35°22' E 139°52'0 0.0
2018-Jan-10 23:58N 35°22' E 139°52'0 0.0
2018-Jan-10 23:28N 35°22' E 139°52'0 0.0
2018-Jan-10 22:55N 35°22' E 139°52'0 0.0
2018-Jan-10 22:28N 35°22' E 139°52'0 0.0
2018-Jan-10 21:52N 35°22' E 139°52'0 0.0
2018-Jan-10 21:28N 35°22' E 139°52'0 0.0
2018-Jan-10 20:55N 35°22' E 139°52'0 0.0
2018-Jan-10 20:28N 35°22' E 139°52'0 0.0
2018-Jan-10 19:58N 35°22' E 139°52'0 0.0
2018-Jan-10 19:22N 35°22' E 139°52'0 0.0
2018-Jan-10 18:55N 35°22' E 139°52'0 0.0
2018-Jan-10 18:25N 35°22' E 139°52'0 0.0
2018-Jan-10 17:58N 35°22' E 139°52'0 0.0
2018-Jan-10 17:25N 35°22' E 139°52'0 0.0
2018-Jan-10 16:55N 35°22' E 139°52'0 0.0
2018-Jan-10 16:25N 35°22' E 139°52'0 0.0
2018-Jan-10 15:58N 35°22' E 139°52'0 0.0
2018-Jan-10 15:28N 35°22' E 139°52'0 0.0
2018-Jan-10 14:58N 35°22' E 139°52'0 0.0
2018-Jan-10 14:28N 35°22' E 139°52'0 0.0
2018-Jan-10 13:58N 35°22' E 139°52'0 0.0
2018-Jan-10 13:28N 35°22' E 139°52'0 0.0
2018-Jan-10 12:58N 35°22' E 139°52'0 0.0
2018-Jan-10 12:28N 35°22' E 139°52'0 0.0
2018-Jan-10 11:58N 35°22' E 139°52'0 0.0
2018-Jan-10 11:28N 35°22' E 139°52'0 0.0
2018-Jan-10 10:58N 35°22' E 139°52'0 0.0
2018-Jan-10 10:28N 35°22' E 139°52'0 0.0
2018-Jan-10 09:55N 35°22' E 139°52'0 0.0
2018-Jan-10 09:25N 35°22' E 139°52'0 0.0
2018-Jan-10 08:58N 35°22' E 139°52'0 0.0
2018-Jan-10 08:28N 35°22' E 139°52'0 0.0
2018-Jan-10 07:55N 35°22' E 139°52'0 0.0
2018-Jan-10 07:28N 35°22' E 139°52'0 0.0
2018-Jan-10 06:58N 35°22' E 139°52'0 0.0
2018-Jan-10 06:28N 35°22' E 139°52'0 0.0
2018-Jan-10 05:55N 35°22' E 139°52'0 0.0
2018-Jan-10 05:25N 35°22' E 139°52'0 0.0
2018-Jan-10 04:58N 35°22' E 139°52'0 0.0
2018-Jan-10 04:28N 35°22' E 139°52'0 0.0
2018-Jan-10 03:55N 35°22' E 139°52'0 0.0
2018-Jan-10 03:28N 35°22' E 139°52'0 0.0
2018-Jan-10 02:55N 35°22' E 139°52'0 0.0
2018-Jan-10 02:28N 35°22' E 139°52'0 0.0
2018-Jan-10 01:52N 35°22' E 139°52'0 0.0
2018-Jan-10 01:28N 35°22' E 139°52'0 0.0
2018-Jan-10 00:55N 35°22' E 139°52'0 0.0
2018-Jan-10 00:28N 35°22' E 139°52'0 0.0
2018-Jan-09 23:58N 35°22' E 139°52'0 0.0
2018-Jan-09 23:28N 35°22' E 139°52'0 0.0
2018-Jan-09 22:58N 35°22' E 139°52'0 0.0
2018-Jan-09 22:28N 35°22' E 139°52'0 0.0
2018-Jan-09 21:55N 35°22' E 139°52'0 0.0
2018-Jan-09 21:28N 35°22' E 139°52'0 0.0
2018-Jan-09 20:58N 35°22' E 139°52'0 0.0
2018-Jan-09 20:28N 35°22' E 139°52'0 0.0
2018-Jan-09 19:58N 35°22' E 139°52'0 0.0
2018-Jan-09 19:28N 35°22' E 139°52'0 0.0
2018-Jan-09 18:58N 35°22' E 139°52'0 0.0
2018-Jan-09 18:25N 35°22' E 139°52'0 0.0
2018-Jan-09 17:58N 35°22' E 139°52'0 0.0
2018-Jan-09 17:28N 35°22' E 139°52'0 0.0
2018-Jan-09 16:58N 35°22' E 139°52'0 0.0
2018-Jan-09 16:25N 35°22' E 139°52'0 0.0
2018-Jan-09 15:58N 35°22' E 139°52'0 0.0
2018-Jan-09 15:25N 35°22' E 139°52'0 0.0
2018-Jan-09 14:58N 35°22' E 139°52'0 0.0
2018-Jan-09 14:28N 35°22' E 139°52'0 0.0
2018-Jan-09 13:58N 35°22' E 139°52'0 0.0
2018-Jan-09 13:25N 35°22' E 139°52'0 0.0
2018-Jan-09 12:58N 35°22' E 139°52'0 0.0
2018-Jan-09 12:28N 35°22' E 139°52'0 0.0
2018-Jan-09 11:58N 35°22' E 139°52'0 0.0
2018-Jan-09 11:25N 35°22' E 139°52'0 0.0
2018-Jan-09 10:58N 35°22' E 139°52'0 0.0
2018-Jan-09 10:25N 35°22' E 139°52'0 0.0
2018-Jan-09 09:58N 35°22' E 139°52'0 0.0
2018-Jan-09 09:28N 35°22' E 139°52'0 0.0
2018-Jan-09 08:55N 35°22' E 139°52'0 0.0
2018-Jan-09 08:28N 35°22' E 139°52'0 0.0
2018-Jan-09 07:52N 35°22' E 139°52'0 0.0
2018-Jan-09 07:28N 35°22' E 139°52'0 0.0
2018-Jan-09 06:58N 35°22' E 139°52'0 0.0
2018-Jan-09 06:25N 35°22' E 139°52'0 0.0
2018-Jan-09 05:58N 35°22' E 139°52'0 0.0
2018-Jan-09 05:25N 35°22' E 139°52'0 0.0
2018-Jan-09 04:58N 35°22' E 139°52'0 0.0
2018-Jan-09 04:25N 35°22' E 139°52'0 0.0
2018-Jan-09 03:58N 35°22' E 139°52'0 0.0
2018-Jan-09 03:28N 35°22' E 139°52'0 0.0
2018-Jan-09 02:55N 35°22' E 139°52'0 0.0
2018-Jan-09 02:28N 35°22' E 139°52'0 0.0
2018-Jan-09 01:58N 35°22' E 139°52'0 0.0
2018-Jan-09 01:28N 35°22' E 139°52'0 0.0
2018-Jan-09 00:58N 35°22' E 139°52'0 0.0
2018-Jan-09 00:25N 35°22' E 139°52'0 0.0
2018-Jan-08 23:58N 35°22' E 139°52'0 0.0
2018-Jan-08 23:25N 35°22' E 139°52'0 0.0
2018-Jan-08 22:58N 35°22' E 139°52'0 0.0
2018-Jan-08 22:28N 35°22' E 139°52'0 0.0
2018-Jan-08 21:58N 35°22' E 139°52'0 0.0
2018-Jan-08 21:28N 35°22' E 139°52'0 0.0
2018-Jan-08 20:58N 35°22' E 139°52'0 0.0
2018-Jan-08 20:28N 35°22' E 139°52'0 0.0
2018-Jan-08 19:58N 35°22' E 139°52'0 0.0
2018-Jan-08 19:25N 35°22' E 139°52'0 0.0
2018-Jan-08 18:58N 35°22' E 139°52'0 0.0
2018-Jan-08 18:28N 35°22' E 139°52'0 0.0
2018-Jan-08 17:58N 35°22' E 139°52'0 0.0
2018-Jan-08 17:28N 35°22' E 139°52'0 0.0
2018-Jan-08 16:58N 35°22' E 139°52'0 0.0
2018-Jan-08 16:25N 35°22' E 139°52'0 0.0
2018-Jan-08 15:58N 35°22' E 139°52'0 0.0
2018-Jan-08 15:28N 35°22' E 139°52'0 0.0
2018-Jan-08 14:58N 35°22' E 139°52'0 0.0
2018-Jan-08 14:28N 35°22' E 139°52'0 0.0
2018-Jan-08 13:58N 35°22' E 139°52'0 0.0
2018-Jan-08 13:25N 35°22' E 139°52'0 0.0
2018-Jan-08 12:55N 35°22' E 139°52'0 0.0
2018-Jan-08 12:28N 35°22' E 139°52'0 0.0
2018-Jan-08 11:52N 35°22' E 139°52'0 0.0
2018-Jan-08 11:28N 35°22' E 139°52'0 0.0
2018-Jan-08 10:55N 35°22' E 139°52'0 0.0
2018-Jan-08 10:25N 35°22' E 139°52'0 0.0
2018-Jan-08 09:49N 35°22' E 139°52'0 0.0
2018-Jan-08 09:25N 35°22' E 139°52'0 0.0
2018-Jan-08 08:49N 35°22' E 139°52'0 0.0
2018-Jan-08 08:22N 35°22' E 139°52'0 0.0
2018-Jan-08 07:58N 35°22' E 139°52'0 0.0
2018-Jan-08 07:25N 35°22' E 139°52'0 0.0
2018-Jan-08 06:58N 35°22' E 139°52'0 0.0
2018-Jan-08 06:28N 35°22' E 139°52'0 0.0
2018-Jan-08 05:58N 35°22' E 139°52'0 0.0
2018-Jan-08 05:28N 35°22' E 139°52'0 0.0
2018-Jan-08 04:58N 35°22' E 139°52'0 0.0
2018-Jan-08 04:25N 35°22' E 139°52'0 0.0
2018-Jan-08 03:52N 35°22' E 139°52'0 0.0
2018-Jan-08 03:28N 35°22' E 139°52'0 0.0
2018-Jan-08 02:58N 35°22' E 139°52'0 0.0
2018-Jan-08 02:25N 35°22' E 139°52'0 0.0
2018-Jan-08 01:58N 35°22' E 139°52'0 0.0
2018-Jan-08 01:25N 35°22' E 139°52'0 0.0
2018-Jan-08 00:55N 35°22' E 139°52'0 0.0
2018-Jan-08 00:25N 35°22' E 139°52'0 0.0
2018-Jan-07 23:55N 35°22' E 139°52'0 0.0
2018-Jan-07 23:28N 35°22' E 139°52'0 0.0
2018-Jan-07 22:58N 35°22' E 139°52'0 0.0
2018-Jan-07 22:28N 35°22' E 139°52'0 0.0
2018-Jan-07 21:58N 35°22' E 139°52'0 0.0
2018-Jan-07 21:25N 35°22' E 139°52'0 0.0
2018-Jan-07 20:58N 35°22' E 139°52'0 0.0
2018-Jan-07 20:28N 35°22' E 139°52'0 0.0
2018-Jan-07 19:55N 35°22' E 139°52'0 0.0
2018-Jan-07 19:25N 35°22' E 139°52'0 0.0
2018-Jan-07 18:55N 35°22' E 139°52'0 0.0
2018-Jan-07 18:25N 35°22' E 139°52'0 0.0
2018-Jan-07 17:58N 35°22' E 139°52'0 0.0
2018-Jan-07 17:28N 35°22' E 139°52'0 0.0
2018-Jan-07 16:58N 35°22' E 139°52'0 0.0
2018-Jan-07 16:28N 35°22' E 139°52'0 0.0
2018-Jan-07 15:55N 35°22' E 139°52'0 0.0
2018-Jan-07 15:28N 35°22' E 139°52'0 0.0
2018-Jan-07 14:58N 35°22' E 139°52'0 0.0
2018-Jan-07 14:28N 35°22' E 139°52'0 0.0
2018-Jan-07 13:58N 35°22' E 139°52'0 0.0
2018-Jan-07 13:25N 35°22' E 139°52'0 0.0
2018-Jan-07 12:55N 35°22' E 139°52'0 0.0
2018-Jan-07 12:28N 35°22' E 139°52'0 0.0
2018-Jan-07 11:58N 35°22' E 139°52'0 0.0
2018-Jan-07 11:28N 35°22' E 139°52'0 0.0
2018-Jan-07 11:00N 35°22' E 139°52'0 0.0
2018-Jan-07 10:30N 35°22' E 139°52'0 0.0
2018-Jan-07 10:00N 35°22' E 139°52'0 0.0
2018-Jan-07 09:30N 35°22' E 139°52'0 0.3
2018-Jan-07 09:00N 35°22' E 139°52'1 3.0
2018-Jan-07 08:30N 35°23' E 139°51'3 5.7
2018-Jan-07 08:00N 35°25' E 139°48'1 1.3
2018-Jan-07 07:27N 35°26' E 139°49'0 0.1
2018-Jan-07 07:00N 35°26' E 139°49'0 0.1
2018-Jan-07 06:30N 35°26' E 139°49'0 0.1
2018-Jan-07 05:57N 35°25' E 139°49'0 0.1
2018-Jan-07 05:30N 35°25' E 139°49'0 0.1
2018-Jan-07 05:00N 35°25' E 139°49'0 0.1
2018-Jan-07 04:31N 35°25' E 139°49'2 3.6
2018-Jan-07 04:00N 35°25' E 139°47'4 8.9
2018-Jan-07 03:30N 35°21' E 139°45'5 9.9
2018-Jan-07 03:00N 35°16' E 139°46'510.1
2018-Jan-07 02:31N 35°11' E 139°47'4 7.3
2018-Jan-07 02:01N 35°07' E 139°46'4 8.2
2018-Jan-07 01:30N 35°04' E 139°43'9 8.6
2018-Jan-07 00:30N 34°55' E 139°42'5 9.7
2018-Jan-07 00:00N 34°51' E 139°44'5 9.8
2018-Jan-06 23:28N 34°46' E 139°48'8 8.8
2018-Jan-06 22:37N 34°43' E 139°56'7 8.9
2018-Jan-06 21:51N 34°44' E 140°04'4 8.4
2018-Jan-06 21:23N 34°45' E 140°09'2 4.3
2018-Jan-06 20:58N 34°45' E 140°11'21810.9
2018-Jan-06 01:00N 37°06' E 143°36'   300 / 181010.010.8 8.0 1.0 3.0

Dump ship's entire track history